createdAt,value
2023-05-21T00:00:39.747Z,951.2359
2023-05-21T00:01:42.453Z,951.2114
2023-05-21T00:02:44.924Z,951.1846
2023-05-21T00:03:46.911Z,951.1736
2023-05-21T00:04:48.698Z,951.1577
2023-05-21T00:06:51.869Z,951.1182
2023-05-21T00:07:53.534Z,951.1009
2023-05-21T00:08:55.210Z,951.0854
2023-05-21T00:09:57.520Z,951.0759
2023-05-21T00:10:59.845Z,951.0604
2023-05-21T00:12:02.217Z,951.0491
2023-05-21T00:13:04.735Z,951.0386
2023-05-21T00:14:06.405Z,951.0204
2023-05-21T00:15:08.290Z,951.0004
2023-05-21T00:16:10.164Z,950.9913
2023-05-21T00:17:12.418Z,950.9800
2023-05-21T00:18:14.760Z,950.9718
2023-05-21T00:19:17.957Z,950.9623
2023-05-21T00:26:29.185Z,950.9282
2023-05-21T00:27:31.702Z,950.9263
2023-05-21T00:28:33.355Z,950.9259
2023-05-21T00:29:35.010Z,950.9286
2023-05-21T00:30:37.829Z,950.9300
2023-05-21T00:31:39.532Z,950.9291
2023-05-21T00:32:41.240Z,950.9254
2023-05-21T00:33:44.009Z,950.9236
2023-05-21T00:35:44.367Z,950.9259
2023-05-21T00:36:46.019Z,950.9150
2023-05-21T00:37:47.688Z,950.8978
2023-05-21T00:38:51.037Z,950.8828
2023-05-21T00:40:52.763Z,950.8550
2023-05-21T00:41:54.847Z,950.8477
2023-05-21T00:43:58.322Z,950.8337
2023-05-21T00:45:00.008Z,950.8218
2023-05-21T00:48:04.620Z,950.8309
2023-05-21T00:49:06.301Z,950.8314
2023-05-21T00:50:07.953Z,950.8341
2023-05-21T00:51:09.591Z,950.8386
2023-05-21T00:52:10.164Z,950.8414
2023-05-21T00:53:11.807Z,950.8373
2023-05-21T00:54:14.546Z,950.8345
2023-05-21T00:55:16.203Z,950.8373
2023-05-21T00:56:17.849Z,950.8445
2023-05-21T00:57:19.518Z,950.8509
2023-05-21T00:58:21.154Z,950.8654
2023-05-21T00:59:22.833Z,950.8646
2023-05-21T01:00:24.506Z,950.8646
2023-05-21T01:01:26.182Z,950.8568
2023-05-21T01:02:27.823Z,950.8455
2023-05-21T01:03:29.611Z,950.8445
2023-05-21T01:04:31.302Z,950.8477
2023-05-21T01:05:33.089Z,950.8409
2023-05-21T01:06:34.837Z,950.8382
2023-05-21T01:07:36.510Z,950.8354
2023-05-21T01:08:38.193Z,950.8296
2023-05-21T01:10:41.318Z,950.8250
2023-05-21T01:11:44.157Z,950.8177
2023-05-21T01:20:57.144Z,950.7946
2023-05-21T01:21:59.485Z,950.7914
2023-05-21T01:23:01.787Z,950.7823
2023-05-21T01:24:04.210Z,950.7755
2023-05-21T01:25:05.952Z,950.7746
2023-05-21T01:26:08.278Z,950.7750
2023-05-21T01:27:10.676Z,950.7691
2023-05-21T01:28:12.955Z,950.7541
2023-05-21T01:29:14.646Z,950.7454
2023-05-21T01:30:16.263Z,950.7354
2023-05-21T01:31:18.597Z,950.7250
2023-05-21T01:32:20.219Z,950.7231
2023-05-21T01:34:23.408Z,950.7087
2023-05-21T01:35:25.152Z,950.7073
2023-05-21T01:36:26.850Z,950.7037
2023-05-21T01:37:29.131Z,950.7009
2023-05-21T01:38:31.438Z,950.6927
2023-05-21T01:39:33.741Z,950.6954
2023-05-21T01:40:36.040Z,950.6923
2023-05-21T01:41:37.674Z,950.6854
2023-05-21T01:42:40.266Z,950.6850
2023-05-21T01:43:42.647Z,950.6854
2023-05-21T01:44:45.262Z,950.6813
2023-05-21T01:45:47.704Z,950.6837
2023-05-21T01:46:49.390Z,950.6763
2023-05-21T01:47:51.888Z,950.6709
2023-05-21T01:48:53.517Z,950.6700
2023-05-21T01:49:56.053Z,950.6641
2023-05-21T01:50:58.448Z,950.6609
2023-05-21T01:52:00.777Z,950.6568
2023-05-21T01:53:03.199Z,950.6622
2023-05-21T01:54:05.190Z,950.6622
2023-05-21T01:55:07.575Z,950.6600
2023-05-21T01:56:09.204Z,950.6523
2023-05-21T01:57:11.162Z,950.6337
2023-05-21T01:59:14.335Z,950.6196
2023-05-21T02:00:15.996Z,950.6204
2023-05-21T02:01:17.762Z,950.6136
2023-05-21T02:02:20.158Z,950.6104
2023-05-21T02:03:22.748Z,950.6082
2023-05-21T02:04:25.089Z,950.5968
2023-05-21T02:05:27.065Z,950.5927
2023-05-21T02:07:30.903Z,950.5668
2023-05-21T02:08:32.555Z,950.5577
2023-05-21T02:09:34.251Z,950.5496
2023-05-21T02:11:38.223Z,950.5463
2023-05-21T02:12:40.933Z,950.5468
2023-05-21T02:13:42.577Z,950.5486
2023-05-21T02:14:44.825Z,950.5359
2023-05-21T02:15:47.086Z,950.5377
2023-05-21T02:16:49.448Z,950.5214
2023-05-21T02:17:51.194Z,950.5137
2023-05-21T02:18:52.852Z,950.5037
2023-05-21T02:19:54.470Z,950.5000
2023-05-21T02:20:56.117Z,950.4954
2023-05-21T02:21:57.816Z,950.4932
2023-05-21T02:22:59.421Z,950.4854
2023-05-21T02:24:02.399Z,950.4854
2023-05-21T02:25:07.226Z,950.4857
2023-05-21T02:32:13.077Z,950.4263
2023-05-21T02:33:14.779Z,950.4209
2023-05-21T02:34:16.451Z,950.4118
2023-05-21T02:35:18.097Z,950.4091
2023-05-21T02:36:19.768Z,950.4023
2023-05-21T02:37:21.454Z,950.4073
2023-05-21T02:38:23.240Z,950.4131
2023-05-21T02:39:24.940Z,950.4009
2023-05-21T02:40:26.589Z,950.3995
2023-05-21T02:41:28.241Z,950.4000
2023-05-21T02:42:30.532Z,950.4127
2023-05-21T02:43:32.874Z,950.4146
2023-05-21T02:44:34.551Z,950.4154
2023-05-21T02:45:36.456Z,950.4150
2023-05-21T02:46:38.830Z,950.4177
2023-05-21T02:47:41.448Z,950.4059
2023-05-21T02:48:43.848Z,950.4082
2023-05-21T02:49:46.573Z,950.4131
2023-05-21T02:50:48.194Z,950.4122
2023-05-21T02:51:49.859Z,950.4068
2023-05-21T02:52:51.519Z,950.3982
2023-05-21T02:53:53.440Z,950.3873
2023-05-21T02:54:55.101Z,950.3923
2023-05-21T02:56:59.738Z,950.3923
2023-05-21T03:03:06.843Z,950.3891
2023-05-21T03:04:09.083Z,950.3937
2023-05-21T03:05:10.717Z,950.3995
2023-05-21T03:06:12.367Z,950.3959
2023-05-21T03:08:16.162Z,950.3986
2023-05-21T03:09:17.867Z,950.3950
2023-05-21T03:10:19.553Z,950.3873
2023-05-21T03:12:23.970Z,950.3904
2023-05-21T03:13:25.635Z,950.3923
2023-05-21T03:14:27.309Z,950.4059
2023-05-21T03:15:28.952Z,950.4032
2023-05-21T03:16:30.606Z,950.4068
2023-05-21T03:18:34.697Z,950.3918
2023-05-21T03:21:39.409Z,950.3882
2023-05-21T03:22:42.406Z,950.4182
2023-05-21T03:25:45.051Z,950.4546
2023-05-21T03:26:47.388Z,950.4586
2023-05-21T03:27:49.752Z,950.4668
2023-05-21T03:28:51.403Z,950.4673
2023-05-21T03:29:53.102Z,950.4750
2023-05-21T03:30:54.897Z,950.4731
2023-05-21T03:31:56.714Z,950.4700
2023-05-21T03:32:58.457Z,950.4709
2023-05-21T03:34:00.697Z,950.4759
2023-05-21T03:35:02.389Z,950.4850
2023-05-21T03:36:04.082Z,950.4968
2023-05-21T03:38:07.331Z,950.5173
2023-05-21T03:39:09.061Z,950.5164
2023-05-21T03:40:10.763Z,950.5109
2023-05-21T03:41:12.467Z,950.5063
2023-05-21T03:43:15.698Z,950.5023
2023-05-21T03:44:17.421Z,950.4963
2023-05-21T03:45:20.243Z,950.4932
2023-05-21T03:55:35.691Z,950.5782
2023-05-21T03:56:37.475Z,950.5964
2023-05-21T03:57:39.147Z,950.6122
2023-05-21T03:58:40.860Z,950.6218
2023-05-21T03:59:42.510Z,950.6337
2023-05-21T04:00:44.198Z,950.6478
2023-05-21T04:01:45.890Z,950.6763
2023-05-21T04:02:47.688Z,950.6918
2023-05-21T04:03:50.214Z,950.7082
2023-05-21T04:04:52.220Z,950.7091
2023-05-21T04:05:53.910Z,950.7119
2023-05-21T04:06:55.565Z,950.7109
2023-05-21T04:07:57.838Z,950.7104
2023-05-21T04:09:00.359Z,950.7004
2023-05-21T04:10:03.175Z,950.7014
2023-05-21T04:11:04.873Z,950.6973
2023-05-21T04:12:06.574Z,950.6904
2023-05-21T04:13:08.260Z,950.7046
2023-05-21T04:15:11.795Z,950.7173
2023-05-21T04:16:13.550Z,950.7313
2023-05-21T04:18:16.797Z,950.7454
2023-05-21T04:19:18.609Z,950.7600
2023-05-21T04:20:20.594Z,950.7609
2023-05-21T04:22:24.524Z,950.7654
2023-05-21T04:23:27.186Z,950.7755
2023-05-21T04:24:28.909Z,950.7791
2023-05-21T04:25:30.654Z,950.7850
2023-05-21T04:26:32.336Z,950.8022
2023-05-21T04:27:34.806Z,950.8127
2023-05-21T04:28:37.108Z,950.8259
2023-05-21T04:29:38.809Z,950.8323
2023-05-21T04:30:40.516Z,950.8436
2023-05-21T04:31:42.964Z,950.8396
2023-05-21T04:32:44.757Z,950.8423
2023-05-21T04:33:46.420Z,950.8459
2023-05-21T04:34:48.128Z,950.8445
2023-05-21T04:35:50.899Z,950.8495
2023-05-21T04:44:03.968Z,950.9404
2023-05-21T04:45:06.360Z,950.9468
2023-05-21T04:46:08.034Z,950.9468
2023-05-21T04:47:09.784Z,950.9564
2023-05-21T04:48:12.323Z,950.9618
2023-05-21T04:49:14.054Z,950.9677
2023-05-21T04:50:15.706Z,950.9731
2023-05-21T04:51:18.060Z,950.9927
2023-05-21T04:52:19.759Z,951.0068
2023-05-21T04:53:21.461Z,951.0237
2023-05-21T04:54:23.170Z,951.0345
2023-05-21T04:55:25.665Z,951.0432
2023-05-21T04:56:28.031Z,951.0546
2023-05-21T04:57:29.730Z,951.0554
2023-05-21T04:58:31.446Z,951.0518
2023-05-21T04:59:33.759Z,951.0459
2023-05-21T05:00:36.082Z,951.0327
2023-05-21T05:01:37.775Z,951.0214
2023-05-21T05:03:41.759Z,951.0200
2023-05-21T05:04:44.135Z,951.0245
2023-05-21T05:05:45.843Z,951.0400
2023-05-21T05:06:47.543Z,951.0522
2023-05-21T05:07:49.519Z,951.0714
2023-05-21T05:08:51.246Z,951.0814
2023-05-21T05:09:52.951Z,951.0773
2023-05-21T05:11:56.823Z,951.0823
2023-05-21T05:12:58.994Z,951.0737
2023-05-21T05:14:00.696Z,951.0632
2023-05-21T05:15:02.774Z,951.0468
2023-05-21T05:16:04.603Z,951.0336
2023-05-21T05:17:06.318Z,951.0250
2023-05-21T05:20:11.866Z,951.0704
2023-05-21T05:21:14.350Z,951.0818
2023-05-21T05:22:16.654Z,951.0945
2023-05-21T05:24:20.651Z,951.0759
2023-05-21T05:25:22.352Z,951.0945
2023-05-21T05:26:24.059Z,951.1041
2023-05-21T05:28:27.971Z,951.1309
2023-05-21T05:29:30.274Z,951.1364
2023-05-21T05:30:32.002Z,951.1473
2023-05-21T05:33:37.846Z,951.1296
2023-05-21T05:34:40.211Z,951.1309
2023-05-21T05:35:42.566Z,951.1373
2023-05-21T05:36:45.007Z,951.1341
2023-05-21T05:37:46.741Z,951.1432
2023-05-21T05:39:50.630Z,951.1514
2023-05-21T05:40:52.987Z,951.1564
2023-05-21T05:41:54.860Z,951.1532
2023-05-21T05:42:56.783Z,951.1500
2023-05-21T05:43:58.542Z,951.1564
2023-05-21T05:45:01.655Z,951.1618
2023-05-21T05:46:00.645Z,951.1652
2023-05-21T05:47:02.581Z,951.1682
2023-05-21T05:48:05.624Z,951.1722
2023-05-21T05:49:07.988Z,951.1782
2023-05-21T05:50:09.731Z,951.1959
2023-05-21T05:51:12.110Z,951.2145
2023-05-21T05:52:14.535Z,951.2123
2023-05-21T05:53:16.285Z,951.2136
2023-05-21T05:55:20.519Z,951.1713
2023-05-21T05:56:23.101Z,951.1641
2023-05-21T05:57:26.039Z,951.1631
2023-05-21T06:04:37.275Z,951.2200
2023-05-21T06:05:39.937Z,951.2309
2023-05-21T06:07:41.571Z,951.2422
2023-05-21T06:08:43.441Z,951.2391
2023-05-21T06:09:45.857Z,951.2309
2023-05-21T06:10:48.411Z,951.2073
2023-05-21T06:11:51.052Z,951.2059
2023-05-21T06:12:53.453Z,951.2277
2023-05-21T06:13:55.192Z,951.2418
2023-05-21T06:14:56.917Z,951.2618
2023-05-21T06:15:59.310Z,951.2755
2023-05-21T06:17:00.997Z,951.3050
2023-05-21T06:20:05.052Z,951.3182
2023-05-21T06:21:07.589Z,951.2936
2023-05-21T06:22:10.019Z,951.2782
2023-05-21T06:23:11.754Z,951.2741
2023-05-21T06:24:14.105Z,951.2836
2023-05-21T06:25:14.289Z,951.2990
2023-05-21T06:32:24.803Z,951.3700
2023-05-21T06:33:27.743Z,951.3709
2023-05-21T06:34:27.672Z,951.3671
2023-05-21T06:36:31.660Z,951.3400
2023-05-21T06:37:33.392Z,951.3391
2023-05-21T06:38:35.332Z,951.3505
2023-05-21T06:39:37.275Z,951.3659
2023-05-21T06:40:39.792Z,951.3828
2023-05-21T06:41:42.348Z,951.3946
2023-05-21T06:42:44.083Z,951.3854
2023-05-21T06:43:46.321Z,951.3622
2023-05-21T06:44:49.214Z,951.3455
2023-05-21T06:45:50.985Z,951.3350
2023-05-21T06:46:52.695Z,951.3259
2023-05-21T06:47:54.468Z,951.3350
2023-05-21T06:48:56.890Z,951.3531
2023-05-21T06:49:59.213Z,951.3650
2023-05-21T06:51:01.598Z,951.3632
2023-05-21T06:52:03.365Z,951.3737
2023-05-21T06:54:07.416Z,951.3436
2023-05-21T06:55:09.167Z,951.3359
2023-05-21T06:56:11.070Z,951.3309
2023-05-21T06:57:12.820Z,951.3400
2023-05-21T06:59:16.991Z,951.3536
2023-05-21T07:02:20.874Z,951.3536
2023-05-21T07:03:21.459Z,951.3557
2023-05-21T07:10:32.031Z,951.3813
2023-05-21T07:12:33.582Z,951.4100
2023-05-21T07:13:35.916Z,951.4177
2023-05-21T07:14:38.477Z,951.4177
2023-05-21T07:15:40.218Z,951.4222
2023-05-21T07:16:42.011Z,951.4172
2023-05-21T07:17:43.779Z,951.4154
2023-05-21T07:18:46.224Z,951.4127
2023-05-21T07:19:48.289Z,951.4023
2023-05-21T07:21:52.480Z,951.4014
2023-05-21T07:22:55.053Z,951.4159
2023-05-21T07:23:57.616Z,951.4159
2023-05-21T07:24:59.338Z,951.4159
2023-05-21T07:26:01.219Z,951.4064
2023-05-21T07:27:08.766Z,951.3914
2023-05-21T07:28:06.806Z,951.3870
2023-05-21T07:37:21.512Z,951.3241
2023-05-21T07:38:23.233Z,951.3223
2023-05-21T07:39:25.115Z,951.3241
2023-05-21T07:40:27.111Z,951.3369
2023-05-21T07:41:29.272Z,951.3531
2023-05-21T07:42:31.031Z,951.3531
2023-05-21T07:43:32.768Z,951.3554
2023-05-21T07:44:34.654Z,951.3382
2023-05-21T07:45:37.404Z,951.3077
2023-05-21T07:46:38.532Z,951.2862
2023-05-21T07:48:40.104Z,951.2709
2023-05-21T07:49:40.366Z,951.2814
2023-05-21T07:50:40.241Z,951.2753
2023-05-21T07:51:42.857Z,951.2795
2023-05-21T07:52:45.426Z,951.2963
2023-05-21T07:53:47.899Z,951.3059
2023-05-21T07:54:49.908Z,951.3228
2023-05-21T07:55:51.790Z,951.3232
2023-05-21T07:58:56.678Z,951.2941
2023-05-21T08:01:01.191Z,951.3068
2023-05-21T08:02:03.536Z,951.2986
2023-05-21T08:03:05.310Z,951.3187
2023-05-21T08:04:07.359Z,951.3354
2023-05-21T08:05:10.817Z,951.3495
2023-05-21T08:06:11.348Z,951.3538
2023-05-21T08:07:13.605Z,951.3541
2023-05-21T08:08:16.210Z,951.3477
2023-05-21T08:09:18.151Z,951.3414
2023-05-21T08:11:22.589Z,951.3577
2023-05-21T08:12:24.332Z,951.3541
2023-05-21T08:13:26.793Z,951.3505
2023-05-21T08:14:28.709Z,951.3486
2023-05-21T08:16:33.512Z,951.3491
2023-05-21T08:17:35.474Z,951.3182
2023-05-21T08:18:37.727Z,951.3137
2023-05-21T08:19:40.145Z,951.3077
2023-05-21T08:20:42.926Z,951.3082
2023-05-21T08:24:48.907Z,951.3137
2023-05-21T08:25:51.727Z,951.3123
2023-05-21T08:27:56.081Z,951.3027
2023-05-21T08:28:58.411Z,951.3154
2023-05-21T08:30:00.850Z,951.3273
2023-05-21T08:31:02.568Z,951.3278
2023-05-21T08:32:04.318Z,951.3246
2023-05-21T08:33:06.786Z,951.3082
2023-05-21T08:34:08.537Z,951.3254
2023-05-21T08:35:10.258Z,951.3287
2023-05-21T08:36:12.076Z,951.3232
2023-05-21T08:37:14.081Z,951.3491
2023-05-21T08:38:16.468Z,951.3382
2023-05-21T08:39:18.919Z,951.3328
2023-05-21T08:40:21.239Z,951.3113
2023-05-21T08:41:22.950Z,951.3187
2023-05-21T08:42:35.742Z,951.3082
2023-05-21T08:44:31.184Z,951.3063
2023-05-21T08:50:38.382Z,951.2687
2023-05-21T08:53:41.227Z,951.2918
2023-05-21T08:54:42.942Z,951.3009
2023-05-21T08:55:44.677Z,951.3100
2023-05-21T08:56:47.154Z,951.3041
2023-05-21T08:58:07.757Z,951.2968
2023-05-21T08:58:50.599Z,951.2933
2023-05-21T08:59:53.019Z,951.2896
2023-05-21T09:00:55.441Z,951.2936
2023-05-21T09:01:57.271Z,951.3104
2023-05-21T09:02:59.980Z,951.3027
2023-05-21T09:04:16.155Z,951.2955
2023-05-21T09:05:04.387Z,951.3160
2023-05-21T09:06:06.145Z,951.3209
2023-05-21T09:07:08.605Z,951.3345
2023-05-21T09:08:11.390Z,951.3391
2023-05-21T09:09:13.108Z,951.3554
2023-05-21T09:12:19.452Z,951.3246
2023-05-21T09:13:21.849Z,951.3187
2023-05-21T09:14:23.585Z,951.3150
2023-05-21T09:16:27.575Z,951.3278
2023-05-21T09:17:30.093Z,951.3154
2023-05-21T09:18:31.800Z,951.2819
2023-05-21T09:19:33.711Z,951.2922
2023-05-21T09:20:36.545Z,951.3096
2023-05-21T09:24:40.701Z,951.3032
2023-05-21T09:25:42.468Z,951.2900
2023-05-21T09:26:45.133Z,951.2850
2023-05-21T09:27:45.104Z,951.2675
2023-05-21T09:28:47.522Z,951.2604
2023-05-21T09:29:49.260Z,951.2641
2023-05-21T09:31:00.060Z,951.2668
2023-05-21T09:37:06.443Z,951.2463
2023-05-21T09:41:09.789Z,951.1727
2023-05-21T09:42:11.987Z,951.1763
2023-05-21T09:44:15.754Z,951.1627
2023-05-21T09:45:17.712Z,951.1746
2023-05-21T09:46:19.482Z,951.1918
2023-05-21T09:48:22.794Z,951.2064
2023-05-21T09:49:26.212Z,951.2123
2023-05-21T09:53:31.143Z,951.2177
2023-05-21T09:53:31.143Z,951.2250
2023-05-21T09:54:32.864Z,951.2191
2023-05-21T09:55:34.622Z,951.2281
2023-05-21T09:56:36.464Z,951.2114
2023-05-21T09:57:38.174Z,951.2104
2023-05-21T09:58:39.953Z,951.2023
2023-05-21T09:59:41.703Z,951.2291
2023-05-21T10:00:43.461Z,951.2477
2023-05-21T10:02:47.585Z,951.2614
2023-05-21T10:03:50.739Z,951.2404
2023-05-21T10:04:50.474Z,951.2557
2023-05-21T10:06:54.399Z,951.2618
2023-05-21T10:07:56.735Z,951.2637
2023-05-21T10:08:59.085Z,951.2750
2023-05-21T10:10:00.825Z,951.2836
2023-05-21T10:11:02.687Z,951.2773
2023-05-21T10:12:05.467Z,951.2818
2023-05-21T10:13:07.897Z,951.2769
2023-05-21T10:14:09.649Z,951.2391
2023-05-21T10:15:11.374Z,951.2437
2023-05-21T10:16:13.865Z,951.2300
2023-05-21T10:17:16.382Z,951.2209
2023-05-21T10:18:18.708Z,951.2037
2023-05-21T10:19:21.220Z,951.2068
2023-05-21T10:20:22.970Z,951.1877
2023-05-21T10:21:25.271Z,951.1896
2023-05-21T10:22:27.708Z,951.1896
2023-05-21T10:23:29.529Z,951.1746
2023-05-21T10:24:31.248Z,951.1686
2023-05-21T10:26:35.340Z,951.1677
2023-05-21T10:27:37.944Z,951.1900
2023-05-21T10:28:40.407Z,951.1791
2023-05-21T10:29:42.615Z,951.1713
2023-05-21T10:30:45.135Z,951.1846
2023-05-21T10:31:47.573Z,951.1545
2023-05-21T10:32:50.372Z,951.1309
2023-05-21T10:34:04.982Z,951.1232
2023-05-21T10:35:55.146Z,951.1091
2023-05-21T10:36:57.969Z,951.1113
2023-05-21T10:39:20.814Z,951.0950
2023-05-21T10:40:01.081Z,951.0607
2023-05-21T10:41:02.809Z,951.0582
2023-05-21T10:42:05.191Z,951.0482
2023-05-21T10:43:07.527Z,951.0668
2023-05-21T10:44:10.067Z,951.0663
2023-05-21T10:45:11.834Z,951.0732
2023-05-21T10:46:13.611Z,951.0714
2023-05-21T10:47:16.069Z,951.0732
2023-05-21T10:48:18.970Z,951.0723
2023-05-21T10:51:21.205Z,951.0219
2023-05-21T10:52:22.960Z,951.0046
2023-05-21T10:53:24.826Z,950.9932
2023-05-21T10:54:26.669Z,950.9772
2023-05-21T10:55:28.965Z,950.9727
2023-05-21T10:56:30.673Z,950.9713
2023-05-21T10:57:33.067Z,950.9822
2023-05-21T10:58:34.847Z,951.0009
2023-05-21T10:59:36.609Z,951.0182
2023-05-21T11:00:38.464Z,951.0341
2023-05-21T11:03:44.880Z,951.0291
2023-05-21T11:04:46.637Z,951.0386
2023-05-21T11:05:48.466Z,951.0472
2023-05-21T11:06:50.231Z,951.0432
2023-05-21T11:07:52.126Z,951.0273
2023-05-21T11:08:55.362Z,950.9963
2023-05-21T11:09:54.714Z,950.9857
2023-05-21T11:10:58.564Z,950.9754
2023-05-21T11:11:58.216Z,950.9957
2023-05-21T11:13:00.601Z,950.9850
2023-05-21T11:14:03.152Z,950.9927
2023-05-21T11:15:05.455Z,951.0032
2023-05-21T11:17:09.685Z,951.0241
2023-05-21T11:18:12.668Z,951.0063
2023-05-21T11:27:27.550Z,950.9250
2023-05-21T11:28:29.322Z,950.9154
2023-05-21T11:29:31.109Z,950.9222
2023-05-21T11:30:35.238Z,950.9332
2023-05-21T11:31:35.441Z,950.9453
2023-05-21T11:32:37.170Z,950.9523
2023-05-21T11:33:38.910Z,950.9373
2023-05-21T11:34:40.657Z,950.9131
2023-05-21T11:36:44.838Z,950.8486
2023-05-21T11:37:47.233Z,950.8409
2023-05-21T11:38:49.684Z,950.8150
2023-05-21T11:39:52.744Z,950.7927
2023-05-21T11:40:52.862Z,950.7962
2023-05-21T11:41:53.409Z,950.7843
2023-05-21T11:44:57.199Z,950.7304
2023-05-21T11:49:43.362Z,950.7185
2023-05-21T11:50:44.248Z,950.7105
2023-05-21T11:51:46.206Z,950.7091
2023-05-21T11:52:48.871Z,950.6964
2023-05-21T11:53:51.512Z,950.6937
2023-05-21T11:54:53.344Z,950.6823
2023-05-21T11:55:55.278Z,950.7100
2023-05-21T11:56:57.272Z,950.6978
2023-05-21T11:57:59.682Z,950.6909
2023-05-21T11:59:00.629Z,950.6953
2023-05-21T12:00:00.835Z,950.7138
2023-05-21T12:01:03.672Z,950.7173
2023-05-21T12:02:06.262Z,950.7391
2023-05-21T12:03:08.993Z,950.7173
2023-05-21T12:04:10.852Z,950.7291
2023-05-21T12:05:13.338Z,950.7363
2023-05-21T12:07:17.659Z,950.7296
2023-05-21T12:12:24.204Z,950.7646
2023-05-21T12:13:26.572Z,950.7432
2023-05-21T12:18:35.482Z,950.6982
2023-05-21T12:20:37.316Z,950.7150
2023-05-21T12:22:38.493Z,950.7195
2023-05-21T12:25:44.153Z,950.7078
2023-05-21T12:26:46.156Z,950.7164
2023-05-21T12:27:48.106Z,950.7186
2023-05-21T12:28:48.186Z,950.7090
2023-05-21T12:29:50.016Z,950.7054
2023-05-21T12:30:52.304Z,950.7054
2023-05-21T12:31:54.265Z,950.6918
2023-05-21T12:32:57.203Z,950.6837
2023-05-21T12:33:59.598Z,950.6827
2023-05-21T12:35:02.232Z,950.6909
2023-05-21T12:36:04.762Z,950.7004
2023-05-21T12:37:07.171Z,950.7023
2023-05-21T12:43:15.219Z,950.6441
2023-05-21T12:44:17.231Z,950.6354
2023-05-21T12:45:19.242Z,950.6378
2023-05-21T12:46:21.763Z,950.6191
2023-05-21T12:47:24.368Z,950.6172
2023-05-21T12:48:26.946Z,950.6113
2023-05-21T12:49:29.857Z,950.5927
2023-05-21T12:50:30.540Z,950.6229
2023-05-21T12:51:32.981Z,950.6304
2023-05-21T12:52:34.796Z,950.6282
2023-05-21T12:53:36.555Z,950.6200
2023-05-21T12:54:39.688Z,950.6250
2023-05-21T12:58:44.769Z,950.6469
2023-05-21T12:59:47.124Z,950.6618
2023-05-21T13:00:49.499Z,950.6882
2023-05-21T13:01:52.143Z,950.6909
2023-05-21T13:02:54.878Z,950.6987
2023-05-21T13:03:57.638Z,950.6877
2023-05-21T13:04:57.229Z,950.6962
2023-05-21T13:06:00.045Z,950.7082
2023-05-21T13:07:04.849Z,950.7119
2023-05-21T13:08:04.836Z,950.6957
2023-05-21T13:09:06.556Z,950.6946
2023-05-21T13:10:08.324Z,950.7136
2023-05-21T13:11:10.964Z,950.7116
2023-05-21T13:12:12.835Z,950.7082
2023-05-21T13:13:14.612Z,950.7159
2023-05-21T13:14:16.453Z,950.7068
2023-05-21T13:15:18.879Z,950.7286
2023-05-21T13:16:21.648Z,950.7118
2023-05-21T13:24:35.091Z,950.6586
2023-05-21T13:26:36.661Z,950.6337
2023-05-21T13:27:39.177Z,950.6304
2023-05-21T13:28:42.673Z,950.6273
2023-05-21T13:29:42.516Z,950.6552
2023-05-21T13:30:45.019Z,950.6387
2023-05-21T13:31:47.533Z,950.6473
2023-05-21T13:32:49.472Z,950.6523
2023-05-21T13:33:51.454Z,950.6622
2023-05-21T13:35:55.851Z,950.6509
2023-05-21T13:36:58.452Z,950.6650
2023-05-21T13:38:01.054Z,950.6541
2023-05-21T13:39:03.449Z,950.6668
2023-05-21T13:40:05.273Z,950.6722
2023-05-21T13:41:07.688Z,950.7068
2023-05-21T13:42:10.278Z,950.7000
2023-05-21T13:43:12.866Z,950.7023
2023-05-21T13:44:15.374Z,950.7050
2023-05-21T13:45:17.177Z,950.6927
2023-05-21T13:46:19.048Z,950.6823
2023-05-21T13:47:21.374Z,950.6796
2023-05-21T13:48:23.875Z,950.6722
2023-05-21T13:49:26.373Z,950.6663
2023-05-21T13:51:38.806Z,950.6837
2023-05-21T13:52:30.463Z,950.6895
2023-05-21T13:53:32.942Z,950.6932
2023-05-21T13:54:33.721Z,950.7214
2023-05-21T13:55:33.530Z,950.7262
2023-05-21T13:56:35.277Z,950.7128
2023-05-21T13:57:37.959Z,950.7132
2023-05-21T13:58:39.790Z,950.7231
2023-05-21T14:00:44.006Z,950.7050
2023-05-21T14:01:44.535Z,950.7090
2023-05-21T14:02:44.314Z,950.7029
2023-05-21T14:03:46.880Z,950.7082
2023-05-21T14:04:49.559Z,950.7123
2023-05-21T14:05:51.534Z,950.6982
2023-05-21T14:06:53.348Z,950.7014
2023-05-21T14:07:55.935Z,950.6850
2023-05-21T14:10:59.491Z,950.6655
2023-05-21T14:12:01.731Z,950.6746
2023-05-21T14:13:15.370Z,950.6709
2023-05-21T14:14:04.434Z,950.6652
2023-05-21T14:15:06.975Z,950.6582
2023-05-21T14:16:08.810Z,950.6646
2023-05-21T14:18:11.668Z,950.6652
2023-05-21T14:19:15.100Z,950.6631
2023-05-21T14:28:28.786Z,950.5950
2023-05-21T14:29:31.265Z,950.5905
2023-05-21T14:30:33.615Z,950.5737
2023-05-21T14:31:36.108Z,950.5587
2023-05-21T14:33:39.562Z,950.5368
2023-05-21T14:34:41.352Z,950.5405
2023-05-21T14:35:44.404Z,950.5409
2023-05-21T14:39:48.437Z,950.5104
2023-05-21T14:40:51.093Z,950.4977
2023-05-21T14:41:53.751Z,950.4904
2023-05-21T14:42:56.089Z,950.4886
2023-05-21T14:43:58.497Z,950.4709
2023-05-21T14:45:16.816Z,950.4727
2023-05-21T14:47:05.956Z,950.4818
2023-05-21T14:48:08.593Z,950.4836
2023-05-21T14:49:11.532Z,950.4882
2023-05-21T14:55:21.532Z,950.5305
2023-05-21T14:56:23.981Z,950.5223
2023-05-21T14:57:26.456Z,950.5382
2023-05-21T14:59:28.742Z,950.5027
2023-05-21T15:00:32.028Z,950.4991
2023-05-21T15:08:45.557Z,950.5936
2023-05-21T15:12:53.609Z,950.6209
2023-05-21T15:15:57.189Z,950.6136
2023-05-21T15:16:59.679Z,950.6182
2023-05-21T15:18:02.364Z,950.6118
2023-05-21T15:20:04.612Z,950.6109
2023-05-21T15:21:07.082Z,950.6068
2023-05-21T15:22:09.547Z,950.6072
2023-05-21T15:23:17.290Z,950.6077
2023-05-21T15:24:14.171Z,950.6075
2023-05-21T15:25:18.316Z,950.6159
2023-05-21T15:26:17.981Z,950.6181
2023-05-21T15:27:20.941Z,950.6182
2023-05-21T15:29:22.515Z,950.6328
2023-05-21T15:30:25.038Z,950.6232
2023-05-21T15:31:27.131Z,950.6223
2023-05-21T15:32:29.152Z,950.6146
2023-05-21T15:33:31.677Z,950.6273
2023-05-21T15:34:33.358Z,950.6290
2023-05-21T15:35:35.349Z,950.6459
2023-05-21T15:36:37.378Z,950.6409
2023-05-21T15:37:39.231Z,950.6409
2023-05-21T15:38:41.564Z,950.6391
2023-05-21T15:39:44.137Z,950.6396
2023-05-21T15:42:48.530Z,950.6000
2023-05-21T15:43:50.989Z,950.5687
2023-05-21T15:44:52.861Z,950.5637
2023-05-21T15:46:56.651Z,950.5809
2023-05-21T15:47:58.472Z,950.5609
2023-05-21T15:49:01.601Z,950.5814
2023-05-21T15:51:02.280Z,950.5886
2023-05-21T15:52:04.408Z,950.5909
2023-05-21T15:53:06.277Z,950.5891
2023-05-21T15:54:19.872Z,950.5891
2023-05-21T15:55:11.161Z,950.5605
2023-05-21T15:56:12.950Z,950.5778
2023-05-21T15:57:14.800Z,950.5914
2023-05-21T15:58:39.853Z,950.5877
2023-05-21T16:00:21.612Z,950.5486
2023-05-21T16:01:23.679Z,950.5522
2023-05-21T16:02:25.601Z,950.5591
2023-05-21T16:03:27.478Z,950.5496
2023-05-21T16:04:29.834Z,950.5450
2023-05-21T16:05:31.609Z,950.5409
2023-05-21T16:06:33.438Z,950.5400
2023-05-21T16:07:37.967Z,950.5178
2023-05-21T16:08:37.999Z,950.5143
2023-05-21T16:09:39.776Z,950.5150
2023-05-21T16:10:41.643Z,950.5154
2023-05-21T16:11:44.041Z,950.5191
2023-05-21T16:12:46.084Z,950.5204
2023-05-21T16:13:48.598Z,950.5068
2023-05-21T16:14:51.048Z,950.5013
2023-05-21T16:15:52.859Z,950.5000
2023-05-21T16:16:55.449Z,950.5004
2023-05-21T16:17:58.075Z,950.4954
2023-05-21T16:19:00.517Z,950.4968